Time;durP1;ratioP1;P1;durP2;ratioP2;P2;SDS_P1;SDS_P2;PMS_P1;PMS_P2;Temp;Humidity;BMP_temperature;BMP_pressure;BME280_temperature;BME280_humidity;BME280_pressure;Samples;Min_cycle;Max_cycle;Signal;HPM_P1;HPM_P2
2023/08/04 00:00:48;;;;;;;13.30;7.00;;;17.10;99.90;;;;;;5015749;28;20496;-67
2023/08/04 00:03:17;;;;;;;13.10;9.00;;;17.10;99.90;;;;;;5015515;28;20546;-67
2023/08/04 00:05:43;;;;;;;12.60;8.90;;;17.10;99.90;;;;;;5008492;28;20485;-69
2023/08/04 00:08:12;;;;;;;21.37;10.73;;;17.10;99.90;;;;;;5012983;28;20482;-69
2023/08/04 00:10:38;;;;;;;10.83;7.17;;;17.10;99.90;;;;;;5015661;28;20486;-68
2023/08/04 00:13:05;;;;;;;18.00;11.93;;;17.10;99.90;;;;;;5011079;28;20484;-68
2023/08/04 00:15:32;;;;;;;12.23;9.23;;;17.20;99.90;;;;;;5013319;28;20985;-68
2023/08/04 00:17:59;;;;;;;14.17;8.67;;;17.20;99.90;;;;;;5012917;28;20526;-68
2023/08/04 00:20:26;;;;;;;12.83;7.87;;;17.20;99.90;;;;;;5012111;28;20575;-68
2023/08/04 00:22:53;;;;;;;9.50;6.90;;;17.20;99.90;;;;;;5017661;28;20565;-69
2023/08/04 00:25:21;;;;;;;11.80;7.87;;;17.20;99.90;;;;;;5014304;28;21184;-67
2023/08/04 00:27:48;;;;;;;10.00;7.33;;;17.10;99.90;;;;;;5012610;28;21081;-67
2023/08/04 00:30:15;;;;;;;10.47;8.40;;;17.10;99.90;;;;;;5012596;28;20491;-67
2023/08/04 00:32:42;;;;;;;8.43;7.20;;;17.10;99.90;;;;;;5010483;28;20488;-68
2023/08/04 00:35:09;;;;;;;14.07;9.80;;;17.10;99.90;;;;;;5016576;28;20522;-67
2023/08/04 00:37:36;;;;;;;10.33;7.27;;;17.10;99.90;;;;;;5025307;28;20498;-68
2023/08/04 00:40:03;;;;;;;19.77;10.33;;;17.10;99.90;;;;;;5011207;28;21017;-67
2023/08/04 00:42:31;;;;;;;9.77;6.57;;;17.10;99.90;;;;;;5012766;28;20837;-69
2023/08/04 00:44:58;;;;;;;15.97;7.73;;;17.00;99.90;;;;;;5011382;28;20918;-66
2023/08/04 00:47:25;;;;;;;11.33;7.07;;;17.00;99.90;;;;;;5020014;28;20480;-67
2023/08/04 00:49:53;;;;;;;9.80;7.00;;;17.00;99.90;;;;;;5014406;28;20496;-65
2023/08/04 00:52:20;;;;;;;17.50;7.90;;;16.90;99.90;;;;;;5013435;28;21189;-67
2023/08/04 00:54:47;;;;;;;12.03;7.90;;;16.80;99.90;;;;;;5010913;28;20483;-66
2023/08/04 00:57:15;;;;;;;11.20;8.60;;;16.90;99.90;;;;;;5012221;28;21064;-67
2023/08/04 00:59:43;;;;;;;10.03;6.70;;;16.80;99.90;;;;;;5012463;28;20610;-67
2023/08/04 01:02:10;;;;;;;13.60;9.53;;;16.80;99.90;;;;;;5011081;28;20479;-66
2023/08/04 01:04:38;;;;;;;11.17;8.20;;;16.70;99.90;;;;;;5012510;28;20889;-67
2023/08/04 01:07:18;;;;;;;13.30;9.83;;;16.70;99.90;;;;;;5012428;28;20624;-66
2023/08/04 01:09:52;;;;;;;10.80;8.60;;;16.60;99.90;;;;;;5017585;28;20482;-68
2023/08/04 01:12:26;;;;;;;11.90;7.43;;;16.60;99.90;;;;;;5009091;28;20483;-67
2023/08/04 01:14:56;;;;;;;16.90;7.20;;;16.60;99.90;;;;;;5010582;28;20901;-68
2023/08/04 01:17:25;;;;;;;12.17;6.53;;;16.60;99.90;;;;;;5013450;28;20970;-68
2023/08/04 01:19:53;;;;;;;10.80;6.90;;;16.70;99.90;;;;;;5015668;28;20487;-67
2023/08/04 01:22:21;;;;;;;9.20;6.40;;;16.60;99.90;;;;;;5016577;28;20535;-67
2023/08/04 01:24:49;;;;;;;8.50;6.53;;;16.60;99.90;;;;;;5013572;28;20538;-67
2023/08/04 01:27:22;;;;;;;9.90;6.13;;;16.70;99.90;;;;;;5016704;28;20533;-67
2023/08/04 01:29:50;;;;;;;10.63;6.80;;;16.80;99.90;;;;;;5019208;28;20578;-66
2023/08/04 01:32:18;;;;;;;11.60;5.97;;;16.60;99.90;;;;;;5031816;28;20484;-67
2023/08/04 01:34:48;;;;;;;8.90;6.17;;;16.70;99.90;;;;;;5016561;28;20492;-67
2023/08/04 01:37:15;;;;;;;12.87;6.70;;;16.70;99.90;;;;;;5019391;28;20509;-68
2023/08/04 01:39:43;;;;;;;8.70;6.10;;;16.70;99.90;;;;;;5016492;28;20679;-67
2023/08/04 01:42:10;;;;;;;9.90;8.20;;;16.70;99.90;;;;;;5019840;28;20491;-68
2023/08/04 01:44:37;;;;;;;12.07;7.20;;;16.80;99.90;;;;;;5020649;28;20488;-67
2023/08/04 01:47:05;;;;;;;10.30;5.33;;;16.80;99.90;;;;;;5021942;28;20480;-68
2023/08/04 01:49:32;;;;;;;7.77;5.20;;;16.90;99.90;;;;;;5014508;28;20529;-69
2023/08/04 01:51:59;;;;;;;9.00;5.93;;;16.90;99.90;;;;;;5024596;28;20880;-67
2023/08/04 01:54:26;;;;;;;14.53;6.67;;;16.90;99.90;;;;;;5019682;28;20483;-66
2023/08/04 01:56:54;;;;;;;8.07;5.60;;;16.90;99.90;;;;;;5025475;28;20484;-66
2023/08/04 01:59:21;;;;;;;6.30;5.50;;;17.00;99.90;;;;;;5021291;28;20484;-66
2023/08/04 02:01:48;;;;;;;7.70;5.17;;;17.10;99.90;;;;;;5016563;28;20459;-68
2023/08/04 02:04:15;;;;;;;6.20;5.50;;;17.00;99.90;;;;;;5030093;28;20702;-69
2023/08/04 02:06:42;;;;;;;7.00;5.50;;;17.10;99.90;;;;;;5022379;28;20473;-68
2023/08/04 02:09:08;;;;;;;10.03;8.53;;;17.30;99.90;;;;;;5022948;28;20491;-67
2023/08/04 02:11:35;;;;;;;7.23;4.37;;;17.40;99.90;;;;;;5024676;28;20552;-66
2023/08/04 02:14:04;;;;;;;10.63;7.93;;;17.40;99.90;;;;;;5009870;28;20663;-67
2023/08/04 02:16:31;;;;;;;11.63;6.83;;;17.40;99.90;;;;;;5020618;28;20488;-67
2023/08/04 02:19:02;;;;;;;17.57;7.37;;;17.30;99.90;;;;;;5020011;28;20480;-67
2023/08/04 02:21:29;;;;;;;8.30;5.93;;;17.20;99.90;;;;;;5024567;28;20483;-68
2023/08/04 02:23:56;;;;;;;11.40;7.43;;;17.30;99.90;;;;;;5021874;28;20496;-68
2023/08/04 02:26:23;;;;;;;9.13;7.23;;;17.10;99.90;;;;;;5023033;28;20851;-68
2023/08/04 02:28:51;;;;;;;12.20;8.03;;;17.00;99.90;;;;;;5025260;28;20801;-67
2023/08/04 02:31:20;;;;;;;16.63;10.17;;;17.00;99.90;;;;;;5015213;28;20556;-67
2023/08/04 02:33:47;;;;;;;16.80;9.30;;;17.00;99.90;;;;;;5037870;28;20484;-70
2023/08/04 02:36:14;;;;;;;14.50;9.80;;;16.90;99.90;;;;;;5029302;28;20484;-67
2023/08/04 02:38:41;;;;;;;15.20;9.37;;;16.90;99.90;;;;;;5024662;28;20853;-67
2023/08/04 02:41:09;;;;;;;18.83;11.53;;;16.90;99.90;;;;;;5025565;28;20554;-69
2023/08/04 02:43:36;;;;;;;12.27;8.60;;;16.90;99.90;;;;;;5021421;28;20478;-71
2023/08/04 02:46:03;;;;;;;16.20;9.83;;;16.80;99.90;;;;;;5025749;28;20483;-66
2023/08/04 02:48:31;;;;;;;15.53;9.60;;;16.80;99.90;;;;;;5022600;28;21061;-67
2023/08/04 02:51:01;;;;;;;12.60;8.67;;;16.80;99.90;;;;;;5026154;28;21024;-68
2023/08/04 02:53:28;;;;;;;14.83;9.97;;;16.80;99.90;;;;;;5025460;28;20475;-68
2023/08/04 02:55:55;;;;;;;11.00;7.77;;;16.80;99.90;;;;;;5020819;28;21409;-66
2023/08/04 02:58:23;;;;;;;13.77;8.30;;;16.90;99.90;;;;;;5023290;28;21047;-69
2023/08/04 03:00:49;;;;;;;10.23;7.60;;;16.90;99.90;;;;;;5021315;28;20481;-66
2023/08/04 03:03:18;;;;;;;21.60;9.87;;;17.00;99.90;;;;;;5022206;28;20730;-67
2023/08/04 03:05:46;;;;;;;17.83;9.07;;;17.10;99.90;;;;;;5021967;28;21051;-68
2023/08/04 03:08:13;;;;;;;12.60;9.80;;;17.10;99.90;;;;;;5021465;28;20488;-67
2023/08/04 03:10:41;;;;;;;11.80;7.37;;;17.20;99.90;;;;;;5020695;28;21049;-68
2023/08/04 03:13:08;;;;;;;15.00;9.67;;;17.30;99.90;;;;;;5034166;28;20883;-68
2023/08/04 03:15:35;;;;;;;11.47;7.17;;;17.30;99.90;;;;;;5026734;28;20509;-69
2023/08/04 03:18:03;;;;;;;11.73;8.40;;;;;;;;;;5026593;28;21045;-67
2023/08/04 03:20:30;;;;;;;9.23;7.23;;;17.20;99.90;;;;;;5024691;28;21061;-66
2023/08/04 03:22:59;;;;;;;14.20;7.77;;;17.20;99.90;;;;;;5027943;28;20475;-68
2023/08/04 03:25:25;;;;;;;14.20;8.13;;;17.20;99.90;;;;;;5014620;28;21279;-66
2023/08/04 03:27:52;;;;;;;14.43;6.73;;;17.20;99.90;;;;;;5030481;28;21063;-67
2023/08/04 03:30:19;;;;;;;9.33;7.40;;;17.20;99.90;;;;;;5025128;28;21390;-67
2023/08/04 03:32:46;;;;;;;9.90;7.87;;;17.20;99.90;;;;;;5023477;28;20910;-67
2023/08/04 03:35:13;;;;;;;14.10;8.90;;;17.10;99.90;;;;;;5017533;28;20580;-67
2023/08/04 03:37:40;;;;;;;14.03;7.00;;;17.10;99.90;;;;;;5023392;28;20476;-65
2023/08/04 03:40:10;;;;;;;15.97;9.27;;;17.10;99.90;;;;;;5020950;28;20592;-67
2023/08/04 03:42:38;;;;;;;13.63;8.73;;;17.00;99.90;;;;;;5023341;28;20543;-67
2023/08/04 03:45:06;;;;;;;23.60;12.20;;;17.00;99.90;;;;;;5017190;28;20559;-68
2023/08/04 03:47:34;;;;;;;14.87;8.53;;;17.00;99.90;;;;;;5021009;28;20568;-66
2023/08/04 03:50:02;;;;;;;14.97;8.60;;;17.00;99.90;;;;;;5021926;28;20492;-68
2023/08/04 03:52:29;;;;;;;9.37;7.37;;;17.00;99.90;;;;;;5020407;28;20488;-68
2023/08/04 03:54:55;;;;;;;13.40;7.50;;;17.10;99.90;;;;;;5021516;28;20480;-66
2023/08/04 03:57:24;;;;;;;11.50;7.80;;;17.10;99.90;;;;;;5023235;28;20745;-67
2023/08/04 03:59:52;;;;;;;13.00;8.87;;;17.20;99.90;;;;;;5027230;28;20568;-68
2023/08/04 04:02:19;;;;;;;12.87;6.97;;;17.30;99.90;;;;;;5022261;28;20912;-66
2023/08/04 04:04:46;;;;;;;13.50;8.13;;;17.20;99.90;;;;;;5009130;28;20490;-67
2023/08/04 04:07:13;;;;;;;14.90;10.67;;;17.10;99.90;;;;;;5022887;28;20606;-67
2023/08/04 04:09:40;;;;;;;12.70;7.90;;;17.20;99.90;;;;;;5023699;28;20479;-67
2023/08/04 04:12:08;;;;;;;15.07;11.23;;;17.20;99.90;;;;;;5020476;28;20473;-66
2023/08/04 04:14:36;;;;;;;14.37;8.63;;;17.20;99.90;;;;;;5020915;28;20488;-67
2023/08/04 04:17:03;;;;;;;16.20;11.80;;;17.20;99.90;;;;;;5020671;28;20982;-67
2023/08/04 04:19:30;;;;;;;15.87;8.60;;;17.20;99.90;;;;;;5022393;28;20482;-66
2023/08/04 04:21:57;;;;;;;15.30;8.73;;;17.20;99.90;;;;;;5016275;28;20477;-67
2023/08/04 04:24:24;;;;;;;20.80;12.13;;;17.20;99.90;;;;;;5019118;28;20476;-67
2023/08/04 04:26:51;;;;;;;21.07;10.37;;;17.20;99.90;;;;;;5017491;28;20570;-67
2023/08/04 04:29:17;;;;;;;16.30;10.10;;;17.20;99.90;;;;;;5019535;28;20484;-67
2023/08/04 04:31:46;;;;;;;12.60;9.17;;;17.10;99.90;;;;;;5017256;28;20527;-68
2023/08/04 04:34:13;;;;;;;15.10;11.17;;;17.20;99.90;;;;;;5020162;28;20473;-66
2023/08/04 04:36:39;;;;;;;15.60;9.50;;;17.20;99.90;;;;;;5017957;28;21074;-70
2023/08/04 04:39:07;;;;;;;31.50;13.13;;;17.10;99.90;;;;;;5013090;28;20495;-67
2023/08/04 04:41:34;;;;;;;16.57;9.60;;;17.00;99.90;;;;;;5015273;28;20818;-69
2023/08/04 04:44:02;;;;;;;15.07;10.67;;;17.00;99.90;;;;;;5016019;28;21099;-68
2023/08/04 04:46:28;;;;;;;24.53;13.10;;;17.00;99.90;;;;;;5015380;28;20468;-68
2023/08/04 04:48:57;;;;;;;13.53;9.83;;;17.00;99.90;;;;;;5016618;28;20588;-67
2023/08/04 04:51:24;;;;;;;17.33;10.30;;;16.90;99.90;;;;;;5020319;28;20514;-67
2023/08/04 04:53:51;;;;;;;23.43;12.43;;;17.00;99.90;;;;;;5005029;28;20592;-67
2023/08/04 04:56:18;;;;;;;22.50;12.53;;;16.90;99.90;;;;;;5021326;28;20471;-67
2023/08/04 04:58:44;;;;;;;17.00;11.10;;;17.00;99.90;;;;;;5023216;28;20477;-68
2023/08/04 05:01:11;;;;;;;20.80;13.33;;;17.00;99.90;;;;;;5019012;28;21157;-67
2023/08/04 05:03:38;;;;;;;14.00;10.17;;;17.00;99.90;;;;;;5019321;28;20580;-68
2023/08/04 05:06:07;;;;;;;20.20;11.23;;;18.30;99.90;;;;;;5021780;28;20554;-67
2023/08/04 05:08:34;;;;;;;17.83;11.07;;;17.10;99.90;;;;;;5021482;28;20477;-68
2023/08/04 05:11:00;;;;;;;26.40;13.10;;;17.20;99.90;;;;;;5021053;28;20491;-67
2023/08/04 05:13:27;;;;;;;20.27;12.10;;;17.30;99.90;;;;;;5016629;28;20473;-68
2023/08/04 05:15:54;;;;;;;18.57;11.93;;;17.20;99.90;;;;;;5020824;28;20682;-68
2023/08/04 05:18:21;;;;;;;17.90;11.70;;;17.20;99.90;;;;;;5008453;28;21657;-67
2023/08/04 05:20:48;;;;;;;22.43;13.27;;;17.20;99.90;;;;;;5018734;28;20574;-67
2023/08/04 05:23:17;;;;;;;24.33;15.10;;;17.30;99.90;;;;;;5015890;28;20507;-68
2023/08/04 05:25:44;;;;;;;21.30;12.73;;;17.30;99.90;;;;;;5017333;28;20520;-67
2023/08/04 05:28:22;;;;;;;23.00;13.90;;;17.30;99.90;;;;;;5016431;28;20482;-66
2023/08/04 05:30:50;;;;;;;19.43;13.73;;;17.40;99.90;;;;;;5018621;28;20461;-67
2023/08/04 05:33:16;;;;;;;22.63;14.13;;;17.40;99.90;;;;;;5017758;28;20716;-67
2023/08/04 05:35:47;;;;;;;20.40;12.30;;;17.50;99.90;;;;;;5017151;28;20917;-67
2023/08/04 05:38:14;;;;;;;29.23;14.50;;;17.60;99.90;;;;;;5011503;28;20497;-67
2023/08/04 05:40:44;;;;;;;20.37;11.00;;;17.70;99.90;;;;;;5027699;28;20548;-67
2023/08/04 05:43:11;;;;;;;18.90;13.80;;;17.80;99.90;;;;;;5016152;28;21250;-68
2023/08/04 05:45:38;;;;;;;21.17;10.90;;;17.80;99.90;;;;;;5009155;28;20476;-68
2023/08/04 05:48:06;;;;;;;18.27;10.83;;;17.80;99.90;;;;;;5028573;28;20499;-67
2023/08/04 05:50:33;;;;;;;12.40;9.67;;;17.80;99.90;;;;;;5014435;28;20838;-68
2023/08/04 05:53:00;;;;;;;15.63;11.07;;;17.80;99.90;;;;;;5008121;28;20527;-67
2023/08/04 05:55:27;;;;;;;13.63;10.43;;;17.90;99.90;;;;;;5006617;28;20490;-67
2023/08/04 05:57:55;;;;;;;16.27;12.07;;;18.00;99.90;;;;;;5015527;28;21404;-67
2023/08/04 06:00:23;;;;;;;15.87;8.80;;;18.00;99.90;;;;;;5016922;28;20510;-68
2023/08/04 06:02:50;;;;;;;9.67;8.50;;;18.00;99.90;;;;;;5022873;28;20555;-68
2023/08/04 06:05:16;;;;;;;9.57;7.90;;;18.00;99.90;;;;;;5012491;28;20657;-67
2023/08/04 06:07:43;;;;;;;6.40;5.70;;;18.00;99.90;;;;;;5019460;28;20484;-67
2023/08/04 06:10:11;;;;;;;11.57;7.23;;;18.00;99.90;;;;;;5023166;28;20500;-66
2023/08/04 06:12:38;;;;;;;6.40;5.00;;;17.90;99.90;;;;;;5022247;28;20480;-66
2023/08/04 06:15:07;;;;;;;10.37;8.50;;;17.90;99.90;;;;;;5023475;28;21105;-67
2023/08/04 06:17:34;;;;;;;5.80;5.20;;;17.80;99.90;;;;;;5022529;28;20476;-68
2023/08/04 06:20:01;;;;;;;7.57;6.50;;;17.80;99.90;;;;;;5019739;28;20485;-69
2023/08/04 06:22:27;;;;;;;7.17;5.53;;;17.70;99.90;;;;;;5022154;28;20472;-68
2023/08/04 06:24:54;;;;;;;8.67;5.37;;;17.70;99.90;;;;;;5017088;28;20487;-66
2023/08/04 06:27:21;;;;;;;6.47;5.80;;;17.60;99.90;;;;;;5020048;28;21041;-69
2023/08/04 06:29:48;;;;;;;6.67;5.73;;;17.60;99.90;;;;;;5019089;28;21019;-69
2023/08/04 06:32:17;;;;;;;8.73;7.87;;;17.50;99.90;;;;;;5020756;28;21000;-68
2023/08/04 06:34:44;;;;;;;7.27;6.53;;;16.80;99.90;;;;;;5024416;28;20645;-68
2023/08/04 06:37:11;;;;;;;10.87;9.00;;;17.60;99.90;;;;;;5020588;28;20559;-68
2023/08/04 06:39:37;;;;;;;9.03;6.70;;;17.60;99.90;;;;;;5020248;28;20490;-68
2023/08/04 06:42:05;;;;;;;9.40;6.63;;;17.70;99.90;;;;;;5020460;28;20476;-68
2023/08/04 06:44:32;;;;;;;10.20;7.67;;;17.70;99.90;;;;;;5020797;28;20509;-68
2023/08/04 06:46:58;;;;;;;10.13;8.50;;;17.70;99.90;;;;;;5015405;28;20479;-68
2023/08/04 06:49:27;;;;;;;6.90;6.07;;;18.30;99.90;;;;;;5021101;28;20615;-68
2023/08/04 06:51:54;;;;;;;8.37;6.00;;;17.70;99.90;;;;;;5017404;28;21004;-67
2023/08/04 06:54:20;;;;;;;6.93;6.23;;;17.70;99.90;;;;;;5021153;28;20560;-67
2023/08/04 06:56:47;;;;;;;9.23;7.40;;;17.70;99.90;;;;;;5024527;28;20566;-68
2023/08/04 06:59:14;;;;;;;8.20;6.77;;;17.80;99.90;;;;;;5025379;28;20709;-67
2023/08/04 07:01:41;;;;;;;5.90;5.40;;;17.70;99.90;;;;;;5023004;28;20846;-67
2023/08/04 07:04:08;;;;;;;12.60;8.50;;;17.70;99.90;;;;;;5022709;28;20621;-67
2023/08/04 07:06:36;;;;;;;9.67;6.40;;;17.70;99.90;;;;;;5022199;28;21009;-67
2023/08/04 07:09:03;;;;;;;9.27;7.70;;;17.70;99.90;;;;;;5014553;28;20478;-68
2023/08/04 07:11:30;;;;;;;7.57;5.43;;;17.60;99.90;;;;;;5024261;28;20468;-67
2023/08/04 07:13:57;;;;;;;9.13;6.93;;;17.60;99.90;;;;;;5021605;28;20835;-68
2023/08/04 07:16:24;;;;;;;6.20;5.60;;;17.60;99.90;;;;;;5019180;28;20482;-67
2023/08/04 07:18:51;;;;;;;7.00;5.90;;;17.60;99.90;;;;;;5019105;28;20473;-67
2023/08/04 07:21:18;;;;;;;7.73;5.33;;;17.60;99.90;;;;;;5019520;28;20949;-66
2023/08/04 07:23:46;;;;;;;10.20;7.27;;;17.50;99.90;;;;;;5019497;28;20517;-67
2023/08/04 07:26:13;;;;;;;12.90;8.93;;;17.50;99.90;;;;;;5018663;28;20485;-68
2023/08/04 07:28:40;;;;;;;9.63;6.60;;;17.50;99.90;;;;;;5024391;28;20570;-68
2023/08/04 07:31:08;;;;;;;10.10;8.27;;;17.50;99.90;;;;;;5023362;28;20487;-67
2023/08/04 07:33:35;;;;;;;9.63;7.70;;;17.50;99.90;;;;;;5020614;28;21077;-68
2023/08/04 07:36:02;;;;;;;8.23;7.43;;;17.50;99.90;;;;;;5023783;28;20571;-67
2023/08/04 07:38:29;;;;;;;8.57;6.70;;;17.60;99.90;;;;;;5027118;28;20497;-67
2023/08/04 07:40:58;;;;;;;7.20;6.30;;;17.60;99.90;;;;;;5022709;28;21039;-67
2023/08/04 07:43:26;;;;;;;8.50;6.83;;;17.60;99.90;;;;;;5015122;28;20998;-67
2023/08/04 07:45:54;;;;;;;8.53;7.63;;;17.60;99.90;;;;;;5017978;28;20486;-67
2023/08/04 07:48:22;;;;;;;9.43;7.30;;;17.70;99.90;;;;;;5017247;28;20837;-67
2023/08/04 07:50:50;;;;;;;9.87;7.30;;;17.70;99.90;;;;;;5021161;28;20552;-67
2023/08/04 07:53:17;;;;;;;10.13;8.80;;;17.80;99.90;;;;;;5017852;28;20477;-68
2023/08/04 07:55:54;;;;;;;9.87;7.30;;;17.80;99.90;;;;;;5017298;28;20488;-67
2023/08/04 07:58:23;;;;;;;6.20;5.60;;;17.80;99.90;;;;;;5016275;28;20902;-67
2023/08/04 08:00:50;;;;;;;9.87;7.97;;;17.80;99.90;;;;;;5015172;28;20473;-67
2023/08/04 08:03:17;;;;;;;9.90;7.30;;;17.80;99.90;;;;;;5016775;28;20491;-67
2023/08/04 08:05:44;;;;;;;9.50;8.07;;;17.90;99.90;;;;;;5013237;28;20500;-67
2023/08/04 08:08:11;;;;;;;11.33;8.83;;;17.80;99.90;;;;;;5038770;28;20646;-67
2023/08/04 08:10:38;;;;;;;10.60;7.60;;;17.90;99.90;;;;;;5021130;28;20556;-67
2023/08/04 08:13:05;;;;;;;10.37;8.63;;;17.90;99.90;;;;;;5023699;28;20480;-66
2023/08/04 08:15:35;;;;;;;7.60;6.53;;;18.00;99.90;;;;;;5016608;28;20480;-67
2023/08/04 08:18:02;;;;;;;8.27;7.40;;;17.90;99.90;;;;;;5020305;28;20479;-67
2023/08/04 08:20:30;;;;;;;6.80;5.90;;;18.00;99.90;;;;;;5028177;28;20475;-67
2023/08/04 08:22:57;;;;;;;7.83;6.50;;;17.90;99.90;;;;;;5034124;28;20931;-67
2023/08/04 08:25:24;;;;;;;15.90;7.53;;;17.80;99.90;;;;;;5024467;28;20494;-67
2023/08/04 08:27:51;;;;;;;7.80;7.03;;;17.80;99.90;;;;;;5019896;28;20519;-67
2023/08/04 08:30:19;;;;;;;7.33;6.40;;;17.80;99.90;;;;;;5024371;28;20482;-66
2023/08/04 08:32:47;;;;;;;8.97;6.70;;;17.90;99.90;;;;;;5020908;28;20484;-67
2023/08/04 08:35:14;;;;;;;13.60;9.70;;;17.90;99.90;;;;;;5018102;28;20480;-66
2023/08/04 08:37:41;;;;;;;13.20;7.57;;;17.90;99.90;;;;;;5017327;28;20559;-67
2023/08/04 08:40:09;;;;;;;17.40;10.63;;;18.10;99.90;;;;;;5020869;28;20492;-65
2023/08/04 08:42:36;;;;;;;10.23;7.23;;;18.00;99.90;;;;;;5009552;28;20550;-65
2023/08/04 08:45:04;;;;;;;18.30;10.93;;;16.90;99.90;;;;;;5015013;28;20592;-66
2023/08/04 08:47:35;;;;;;;7.17;6.40;;;18.20;99.90;;;;;;5018669;28;20476;-67
2023/08/04 08:50:05;;;;;;;11.37;8.27;;;18.20;99.90;;;;;;5016185;28;20558;-68
2023/08/04 08:52:36;;;;;;;9.20;7.70;;;18.20;99.90;;;;;;5022141;28;20482;-66
2023/08/04 08:55:05;;;;;;;10.57;9.20;;;18.30;99.90;;;;;;5019154;28;20874;-67
2023/08/04 08:57:32;;;;;;;8.40;6.63;;;18.30;99.90;;;;;;5019432;28;20530;-65
2023/08/04 08:59:59;;;;;;;9.27;7.57;;;18.40;99.90;;;;;;5016818;28;20476;-66
2023/08/04 09:02:26;;;;;;;11.13;8.63;;;18.30;99.90;;;;;;5018870;28;20518;-65
2023/08/04 09:04:54;;;;;;;7.50;6.77;;;18.40;99.90;;;;;;5017402;28;20522;-67
2023/08/04 09:07:23;;;;;;;9.17;6.50;;;18.60;99.90;;;;;;5015882;28;20849;-65
2023/08/04 09:09:50;;;;;;;11.87;7.87;;;18.60;99.90;;;;;;5012312;28;20696;-66
2023/08/04 09:12:18;;;;;;;9.93;7.70;;;18.70;99.90;;;;;;5033414;28;20506;-66
2023/08/04 09:14:52;;;;;;;7.73;7.03;;;18.80;99.90;;;;;;5020638;28;20490;-67
2023/08/04 09:17:33;;;;;;;8.80;7.37;;;18.90;99.90;;;;;;5019059;28;20478;-68
2023/08/04 09:20:01;;;;;;;11.00;7.50;;;19.00;99.90;;;;;;5016731;28;20471;-66
2023/08/04 09:22:31;;;;;;;6.77;6.10;;;19.00;99.90;;;;;;5017967;28;20476;-66
2023/08/04 09:25:00;;;;;;;8.23;7.30;;;19.10;99.90;;;;;;5013176;28;20985;-67
2023/08/04 09:27:30;;;;;;;9.13;5.70;;;19.20;99.90;;;;;;5019408;28;21008;-67
2023/08/04 09:29:59;;;;;;;7.80;7.07;;;19.30;99.90;;;;;;5016900;28;20846;-66
2023/08/04 09:32:26;;;;;;;9.97;6.80;;;19.40;99.90;;;;;;5019927;28;20494;-66
2023/08/04 09:35:00;;;;;;;7.73;5.47;;;19.50;99.90;;;;;;5014986;28;20480;-66
2023/08/04 09:37:28;;;;;;;11.73;7.70;;;19.50;99.90;;;;;;5016808;28;20996;-66
2023/08/04 09:39:55;;;;;;;8.83;6.47;;;19.60;99.90;;;;;;5016854;28;20705;-65
2023/08/04 09:42:22;;;;;;;8.63;7.17;;;19.60;99.90;;;;;;5016775;28;20484;-67
2023/08/04 09:44:52;;;;;;;9.87;8.00;;;19.60;99.90;;;;;;5013968;28;21004;-65
2023/08/04 09:47:23;;;;;;;8.23;7.40;;;19.70;99.90;;;;;;5019269;28;20487;-66
2023/08/04 09:49:50;;;;;;;17.10;8.53;;;19.80;99.90;;;;;;5020111;28;21027;-67
2023/08/04 09:52:21;;;;;;;9.00;7.50;;;19.90;99.90;;;;;;5020607;28;21047;-68
2023/08/04 09:54:51;;;;;;;8.80;7.47;;;20.00;99.90;;;;;;5024274;28;20474;-68
2023/08/04 09:57:18;;;;;;;15.97;6.80;;;20.10;99.90;;;;;;5019795;28;20495;-68
2023/08/04 09:59:47;;;;;;;10.47;6.23;;;20.10;99.90;;;;;;5022841;28;20471;-69
2023/08/04 10:02:14;;;;;;;8.33;7.53;;;20.30;99.90;;;;;;5019859;28;20986;-68
2023/08/04 10:04:42;;;;;;;8.50;6.30;;;20.40;99.90;;;;;;5024851;28;20553;-67
2023/08/04 10:07:10;;;;;;;8.70;7.90;;;20.50;99.90;;;;;;5019913;28;20484;-67
2023/08/04 10:09:37;;;;;;;12.60;7.43;;;20.60;99.90;;;;;;5021334;28;20480;-67
2023/08/04 10:12:07;;;;;;;10.27;8.13;;;20.70;99.90;;;;;;5018027;28;21023;-69
2023/08/04 10:14:34;;;;;;;11.53;7.30;;;20.70;99.90;;;;;;5019781;28;20468;-69
2023/08/04 10:17:02;;;;;;;10.00;7.03;;;20.70;99.90;;;;;;5018642;28;20484;-68
2023/08/04 10:19:29;;;;;;;8.13;6.63;;;20.70;99.90;;;;;;5021854;28;20472;-67
2023/08/04 10:22:04;;;;;;;7.33;6.40;;;20.60;99.90;;;;;;5021489;28;20466;-68
2023/08/04 10:24:31;;;;;;;6.17;5.63;;;20.50;99.90;;;;;;5026628;28;20486;-68
2023/08/04 10:26:58;;;;;;;7.17;6.40;;;20.40;99.90;;;;;;5028864;28;20562;-68
2023/08/04 10:29:33;;;;;;;10.40;6.60;;;20.30;99.90;;;;;;5023255;28;20613;-67
2023/08/04 10:32:01;;;;;;;9.10;6.87;;;20.40;99.90;;;;;;5018494;28;20586;-65
2023/08/04 10:34:31;;;;;;;10.10;7.60;;;20.40;99.90;;;;;;5020392;28;20887;-67
2023/08/04 10:37:04;;;;;;;7.80;6.80;;;20.50;99.90;;;;;;5022118;28;20576;-66
2023/08/04 10:39:32;;;;;;;13.63;8.03;;;20.50;99.90;;;;;;5029396;28;21048;-67
2023/08/04 10:42:00;;;;;;;7.90;6.90;;;20.60;99.90;;;;;;5021502;28;20853;-67
2023/08/04 10:44:48;;;;;;;10.47;7.03;;;20.40;99.90;;;;;;5025651;28;20482;-67
2023/08/04 10:47:15;;;;;;;9.90;8.90;;;20.40;99.90;;;;;;5024772;28;20468;-68
2023/08/04 10:49:42;;;;;;;12.73;7.30;;;20.50;99.90;;;;;;5015608;28;20488;-64
2023/08/04 10:52:10;;;;;;;11.63;8.40;;;20.50;99.90;;;;;;5020623;28;20476;-67
2023/08/04 10:54:37;;;;;;;7.93;6.57;;;20.50;99.90;;;;;;5019354;28;20491;-65
2023/08/04 10:57:04;;;;;;;10.27;9.23;;;20.50;99.90;;;;;;5015987;28;20490;-67
2023/08/04 10:59:33;;;;;;;9.00;7.10;;;20.50;99.90;;;;;;5021094;28;20888;-67
2023/08/04 11:01:59;;;;;;;9.63;7.63;;;20.50;99.90;;;;;;5019510;28;20477;-67
2023/08/04 11:04:26;;;;;;;8.77;7.20;;;20.50;99.90;;;;;;5012310;28;20483;-68
2023/08/04 11:06:58;;;;;;;11.23;7.93;;;20.50;99.90;;;;;;5011785;28;20561;-65
2023/08/04 11:09:25;;;;;;;9.70;7.90;;;20.40;99.90;;;;;;5010554;28;20489;-65
2023/08/04 11:11:52;;;;;;;11.57;8.90;;;20.30;99.90;;;;;;5015395;28;20475;-67
2023/08/04 11:14:19;;;;;;;12.90;7.90;;;20.10;99.90;;;;;;5018354;28;20563;-67
2023/08/04 11:16:49;;;;;;;11.67;10.47;;;20.10;99.90;;;;;;5009543;28;20472;-65
2023/08/04 11:19:20;;;;;;;11.90;10.30;;;19.90;99.90;;;;;;5016373;28;20495;-66
2023/08/04 11:21:47;;;;;;;10.50;9.50;;;19.80;99.90;;;;;;5018541;28;21278;-66
2023/08/04 11:24:14;;;;;;;13.20;10.60;;;19.70;99.90;;;;;;5017600;28;20591;-66
2023/08/04 11:26:41;;;;;;;10.53;8.33;;;19.70;99.90;;;;;;5015049;28;20454;-67
2023/08/04 11:29:08;;;;;;;17.23;10.73;;;19.60;99.90;;;;;;5011589;28;20512;-66
2023/08/04 11:31:35;;;;;;;10.77;9.40;;;19.50;99.90;;;;;;5010823;28;20510;-66
2023/08/04 11:34:03;;;;;;;17.63;12.27;;;19.40;99.90;;;;;;5005536;28;20469;-66
2023/08/04 11:36:30;;;;;;;12.43;10.87;;;19.40;99.90;;;;;;5006929;28;20489;-66
2023/08/04 11:38:57;;;;;;;10.40;8.90;;;19.40;99.90;;;;;;5012200;28;20491;-65
2023/08/04 11:41:24;;;;;;;13.73;9.70;;;19.40;99.90;;;;;;5007413;28;20844;-66
2023/08/04 11:43:51;;;;;;;11.20;8.97;;;19.30;99.90;;;;;;5013961;28;20749;-67
2023/08/04 11:46:19;;;;;;;11.53;10.33;;;19.30;99.90;;;;;;5014250;28;20493;-65
2023/08/04 11:48:47;;;;;;;9.53;8.53;;;19.30;99.90;;;;;;5020907;28;20453;-65
2023/08/04 11:51:15;;;;;;;14.93;11.63;;;19.30;99.90;;;;;;5017679;28;20496;-66
2023/08/04 11:53:45;;;;;;;9.73;8.23;;;19.30;99.90;;;;;;5016878;28;20577;-64
2023/08/04 11:56:13;;;;;;;11.97;9.67;;;19.40;99.90;;;;;;5017738;28;20917;-65
2023/08/04 11:58:40;;;;;;;10.47;9.00;;;19.40;99.90;;;;;;5015338;28;20532;-66
2023/08/04 12:01:24;;;;;;;13.90;10.67;;;19.50;99.90;;;;;;5016429;28;20475;-66
2023/08/04 12:03:51;;;;;;;12.90;8.90;;;19.50;99.90;;;;;;5005178;28;20476;-66
2023/08/04 12:06:21;;;;;;;9.93;9.03;;;19.60;99.90;;;;;;5011167;28;20995;-67
2023/08/04 12:08:52;;;;;;;8.57;7.63;;;19.60;99.90;;;;;;5013795;28;20573;-65
2023/08/04 12:11:19;;;;;;;9.07;8.17;;;19.70;99.90;;;;;;5011945;28;20476;-65
2023/08/04 12:13:46;;;;;;;10.10;8.33;;;19.80;99.90;;;;;;5011993;28;20478;-66
2023/08/04 12:16:14;;;;;;;10.30;9.30;;;19.90;99.90;;;;;;5014993;28;21061;-65
2023/08/04 12:18:41;;;;;;;13.93;9.90;;;20.00;99.90;;;;;;5013680;28;20477;-67
2023/08/04 12:21:10;;;;;;;20.17;11.67;;;20.10;99.90;;;;;;5011205;28;20469;-66
2023/08/04 12:23:38;;;;;;;11.30;10.00;;;20.20;99.90;;;;;;5017830;28;20474;-66
2023/08/04 12:26:05;;;;;;;14.97;11.73;;;20.40;99.90;;;;;;5015217;28;20487;-65
2023/08/04 12:28:32;;;;;;;10.80;8.80;;;20.60;99.90;;;;;;5013069;28;20568;-66
2023/08/04 12:30:59;;;;;;;12.93;9.07;;;20.90;99.90;;;;;;5004031;28;20550;-66
2023/08/04 12:33:26;;;;;;;9.77;8.60;;;21.00;99.90;;;;;;5025527;28;20476;-65
2023/08/04 12:35:53;;;;;;;14.20;8.10;;;21.10;99.90;;;;;;5017180;28;20566;-65
2023/08/04 12:38:20;;;;;;;10.80;9.70;;;21.30;99.90;;;;;;5014610;28;20484;-66
2023/08/04 12:40:48;;;;;;;8.97;8.07;;;21.60;99.90;;;;;;5015477;28;21208;-66